Time;durP1;ratioP1;P1;durP2;ratioP2;P2;SDS_P1;SDS_P2;PMS_P1;PMS_P2;Temp;Humidity;BMP_temperature;BMP_pressure;BME280_temperature;BME280_humidity;BME280_pressure;Samples;Min_cycle;Max_cycle;Signal;HPM_P1;HPM_P2
2021/08/16 00:00:32;;;;;;;8.97;8.07;;;;;;;23.61;53.49;94984.03;5074657;28;21034;-85
2021/08/16 00:09:43;;;;;;;8.73;7.87;;;;;;;23.34;54.23;94978.66;5074422;28;20475;-86
2021/08/16 00:12:10;;;;;;;9.77;7.83;;;;;;;23.27;53.77;94983.19;5056086;28;20448;-86
2021/08/16 00:14:38;;;;;;;8.50;7.60;;;;;;;23.26;54.11;94984.22;5074970;28;21006;-86
2021/08/16 00:17:06;;;;;;;9.23;8.47;;;;;;;23.21;54.21;94970.63;5074281;28;20527;-86
2021/08/16 00:19:33;;;;;;;8.30;7.43;;;;;;;23.27;53.17;94968.97;5056360;28;20978;-86
2021/08/16 00:22:00;;;;;;;8.90;7.30;;;;;;;23.28;53.15;94970.63;5074161;28;20877;-86
2021/08/16 00:24:27;;;;;;;8.80;7.23;;;;;;;23.31;52.75;94975.56;5074181;28;20519;-86
2021/08/16 00:26:54;;;;;;;8.73;7.47;;;;;;;23.35;52.67;94974.13;5074565;28;20480;-86
2021/08/16 00:29:21;;;;;;;8.50;6.13;;;;;;;23.37;52.51;94964.00;5074293;28;20488;-86
2021/08/16 00:31:50;;;;;;;8.17;7.37;;;;;;;23.47;52.62;94967.94;5074012;28;20529;-86
2021/08/16 00:34:17;;;;;;;7.30;6.70;;;;;;;23.54;51.91;94965.25;5074296;28;20439;-85
2021/08/16 00:36:44;;;;;;;10.40;7.70;;;;;;;23.56;51.34;94959.72;5073967;28;20441;-86
2021/08/16 00:39:11;;;;;;;6.83;6.30;;;;;;;23.50;51.30;94974.72;5073839;28;21245;-86
2021/08/16 00:41:39;;;;;;;9.03;6.73;;;;;;;23.61;51.77;94971.44;5074145;28;20517;-86
2021/08/16 00:44:08;;;;;;;16.53;7.07;;;;;;;23.58;51.17;94968.38;5074186;28;20473;-86
2021/08/16 01:13:30;;;;;;;8.53;7.73;;;;;;;23.43;53.34;94976.59;5072715;28;20450;-86
2021/08/16 01:16:00;;;;;;;8.23;7.53;;;;;;;23.61;52.31;94974.13;5073295;28;20469;-86
2021/08/16 01:18:32;;;;;;;7.33;6.50;;;;;;;23.75;52.08;94972.25;5037985;28;20472;-86
2021/08/16 01:20:59;;;;;;;7.73;6.93;;;;;;;23.85;51.81;94971.81;5073631;28;20448;-86
2021/08/16 01:23:27;;;;;;;7.33;6.53;;;;;;;23.89;51.10;94960.47;5073485;28;20435;-85
2021/08/16 01:25:55;;;;;;;8.20;7.07;;;;;;;23.99;50.22;94960.00;5073484;28;20625;-86
2021/08/16 01:28:23;;;;;;;6.70;6.10;;;;;;;24.05;49.71;94964.56;5073204;28;20509;-86
2021/08/16 01:34:14;;;;;;;6.50;5.90;;;;;;;24.07;48.35;94957.94;5073316;28;20481;-86
2021/08/16 01:36:41;;;;;;;7.97;5.90;;;;;;;24.07;47.65;94957.94;5038479;28;20807;-86
2021/08/16 01:39:09;;;;;;;8.03;5.87;;;;;;;24.15;47.21;94954.19;5073305;28;20434;-86
2021/08/16 01:41:36;;;;;;;6.13;5.53;;;;;;;24.18;46.99;94953.78;5073486;28;20526;-86
2021/08/16 01:44:05;;;;;;;6.60;5.57;;;;;;;24.20;47.64;94957.06;5073179;28;20912;-86
2021/08/16 01:46:32;;;;;;;7.17;6.57;;;;;;;24.21;47.56;94950.66;5038545;28;20462;-86
2021/08/16 01:48:59;;;;;;;7.17;6.57;;;;;;;24.12;47.91;94943.91;5072987;28;20881;-86
2021/08/16 01:51:26;;;;;;;6.40;5.70;;;;;;;24.03;47.84;94946.00;5073326;28;20525;-86
2021/08/16 01:53:53;;;;;;;6.23;5.63;;;;;;;24.03;48.10;94946.00;5073684;28;20793;-86
2021/08/16 01:56:21;;;;;;;5.60;5.10;;;;;;;23.96;47.03;94947.84;5073234;28;20525;-86
2021/08/16 01:58:47;;;;;;;6.27;5.50;;;;;;;23.87;47.08;94951.00;5072934;28;20446;-86
2021/08/16 02:01:16;;;;;;;5.77;5.27;;;;;;;23.66;47.16;94944.03;5073078;28;20461;-86
2021/08/16 02:03:43;;;;;;;7.43;5.17;;;;;;;23.62;46.71;94950.84;5073699;28;20443;-86
2021/08/16 02:06:10;;;;;;;5.10;4.70;;;;;;;23.52;47.35;94947.75;5072907;28;20433;-86
2021/08/16 02:08:37;;;;;;;5.80;5.30;;;;;;;23.52;47.60;94951.25;5073511;28;20973;-86
2021/08/16 02:11:04;;;;;;;8.03;5.63;;;;;;;23.41;48.08;94947.31;5072794;28;20441;-86
2021/08/16 02:13:31;;;;;;;8.63;5.80;;;;;;;23.37;47.75;94945.25;5072913;28;20910;-86
2021/08/16 02:15:58;;;;;;;7.23;5.77;;;;;;;23.42;48.24;94956.22;5054519;28;20451;-86
2021/08/16 02:18:26;;;;;;;6.63;6.10;;;;;;;22.85;49.73;94952.28;5072589;28;20489;-86
2021/08/16 02:20:53;;;;;;;6.20;5.60;;;;;;;22.53;51.59;94953.81;5073551;28;20467;-86
2021/08/16 02:23:20;;;;;;;8.00;6.70;;;;;;;22.11;54.41;94962.94;5072668;28;20518;-86
2021/08/16 02:25:47;;;;;;;9.33;6.77;;;;;;;22.29;54.52;94962.41;5038004;28;20523;-85
2021/08/16 02:28:16;;;;;;;9.27;7.50;;;;;;;22.45;53.71;94960.19;5072893;28;20448;-86
2021/08/16 02:30:43;;;;;;;7.93;7.03;;;;;;;22.52;53.29;94961.00;5075524;28;20447;-86
2021/08/16 02:33:10;;;;;;;8.20;6.67;;;;;;;22.64;53.28;94966.63;5076596;28;20441;-86
2021/08/16 02:35:39;;;;;;;9.63;6.83;;;;;;;22.69;52.79;94966.81;5076631;28;20526;-86
2021/08/16 02:38:06;;;;;;;7.57;6.27;;;;;;;22.77;52.21;94963.94;5076428;28;20537;-86
2021/08/16 02:40:33;;;;;;;6.77;5.77;;;;;;;22.92;51.48;94963.00;5076270;28;20439;-86
2021/08/16 02:43:00;;;;;;;6.30;5.70;;;;;;;23.05;50.98;94968.34;5076476;28;20514;-86
2021/08/16 02:45:27;;;;;;;6.00;5.50;;;;;;;23.15;50.85;94964.25;5076433;28;20531;-86
2021/08/16 02:47:55;;;;;;;6.33;5.70;;;;;;;23.23;50.29;94962.38;5075989;28;20443;-86
2021/08/16 02:50:22;;;;;;;5.47;4.83;;;;;;;23.31;49.84;94963.00;5075902;28;20553;-86
2021/08/16 02:52:51;;;;;;;7.20;5.60;;;;;;;23.37;50.10;94959.47;5075938;28;20543;-86
2021/08/16 02:55:18;;;;;;;7.73;5.93;;;;;;;23.34;49.84;94951.88;5076340;28;20462;-86
2021/08/16 02:57:45;;;;;;;5.87;5.17;;;;;;;23.33;49.88;94947.53;5076810;28;20507;-86
2021/08/16 03:00:14;;;;;;;6.30;5.30;;;;;;;23.30;49.80;94956.00;5075768;28;20528;-86
2021/08/16 03:02:43;;;;;;;6.13;5.53;;;;;;;23.24;48.92;94966.72;5076071;28;20496;-86
2021/08/16 03:05:11;;;;;;;7.10;5.27;;;;;;;23.15;49.49;94963.44;5075748;28;20454;-86
2021/08/16 03:07:38;;;;;;;5.53;5.03;;;;;;;23.02;49.73;94955.38;5075752;28;20471;-86
2021/08/16 03:10:07;;;;;;;7.20;6.00;;;;;;;22.97;49.75;94958.66;5075533;28;20562;-86
2021/08/16 03:12:34;;;;;;;5.93;5.30;;;;;;;22.84;49.92;94967.50;5041220;28;20522;-85
2021/08/16 03:15:01;;;;;;;7.40;5.60;;;;;;;22.83;50.79;94955.13;5076178;28;20569;-86
2021/08/16 03:17:28;;;;;;;5.70;5.20;;;;;;;22.77;50.27;94955.91;5075520;28;20435;-85
2021/08/16 03:19:55;;;;;;;6.63;6.03;;;;;;;22.73;51.36;94965.38;5075284;28;20570;-86
2021/08/16 03:22:22;;;;;;;5.90;5.20;;;;;;;22.67;50.33;94955.50;5076923;28;20483;-85
2021/08/16 03:24:49;;;;;;;8.10;6.10;;;;;;;22.65;52.01;94952.22;5079505;28;20525;-86
2021/08/16 03:27:17;;;;;;;7.17;6.47;;;;;;;22.60;51.50;94960.03;5076782;28;20478;-86
2021/08/16 03:29:46;;;;;;;5.93;5.40;;;;;;;22.64;52.10;94963.13;5040488;28;21048;-86
2021/08/16 03:32:13;;;;;;;5.60;5.07;;;;;;;22.66;51.90;94963.72;5040896;28;20473;-86
2021/08/16 03:34:41;;;;;;;6.30;5.80;;;;;;;22.64;52.33;94966.63;5040373;28;21062;-85
2021/08/16 03:37:08;;;;;;;6.20;5.50;;;;;;;22.56;51.85;94958.78;5040157;28;20511;-86
2021/08/16 03:39:36;;;;;;;6.07;5.53;;;;;;;22.44;52.51;94961.19;5075883;28;20790;-86
2021/08/16 03:42:03;;;;;;;6.43;5.83;;;;;;;22.52;52.41;94957.50;5074512;28;20475;-86
2021/08/16 03:44:31;;;;;;;7.07;6.37;;;;;;;22.31;53.12;94953.16;5040378;28;20445;-86
2021/08/16 03:46:58;;;;;;;7.30;5.87;;;;;;;22.18;53.63;94959.25;5075030;28;20444;-86
2021/08/16 03:49:25;;;;;;;10.70;6.30;;;;;;;22.19;54.33;94968.09;5074898;28;20484;-86
2021/08/16 03:51:52;;;;;;;6.60;6.00;;;;;;;22.23;53.99;94966.69;5075327;28;20454;-86
2021/08/16 03:54:19;;;;;;;7.53;6.83;;;;;;;22.17;54.40;94972.81;5074815;28;20514;-86
2021/08/16 03:56:46;;;;;;;6.03;5.43;;;;;;;22.22;54.14;94976.53;5075103;28;20516;-86
2021/08/16 03:59:13;;;;;;;6.70;6.00;;;;;;;22.23;54.51;94977.38;5074663;28;21033;-85
2021/08/16 04:01:42;;;;;;;8.23;6.20;;;;;;;22.20;54.27;94975.91;5074719;28;20489;-86
2021/08/16 04:04:09;;;;;;;9.50;6.10;;;;;;;22.38;54.58;94974.56;5075419;28;20469;-86
2021/08/16 04:13:22;;;;;;;6.67;6.07;;;;;;;22.91;53.25;94982.75;5074513;28;20481;-84
2021/08/16 04:15:49;;;;;;;8.20;5.93;;;;;;;23.33;54.17;94977.00;5074666;28;20545;-82
2021/08/16 04:18:17;;;;;;;11.27;5.90;;;;;;;24.56;52.33;94983.34;5075357;28;20458;-84
2021/08/16 04:20:44;;;;;;;6.53;5.67;;;;;;;25.77;47.57;94975.09;5039740;28;20871;-85
2021/08/16 04:23:11;;;;;;;8.00;6.50;;;;;;;26.24;45.11;94984.28;5074174;28;20537;-84
2021/08/16 04:25:38;;;;;;;6.93;6.33;;;;;;;26.50;44.29;94979.66;5074434;28;20524;-85
2021/08/16 04:28:05;;;;;;;7.93;6.63;;;;;;;26.95;43.68;94993.56;5074362;28;20516;-81
2021/08/16 04:30:32;;;;;;;8.93;6.33;;;;;;;27.53;44.02;94979.44;5075070;28;20494;-83
2021/08/16 04:32:59;;;;;;;6.83;6.17;;;;;;;28.04;43.06;94984.16;5073859;28;20448;-84
2021/08/16 04:35:28;;;;;;;6.90;6.20;;;;;;;28.57;40.76;94985.03;5073329;28;20476;-83
2021/08/16 04:37:55;;;;;;;7.93;6.10;;;;;;;29.07;40.29;94982.50;5038501;28;20508;-83
2021/08/16 04:40:22;;;;;;;7.73;6.93;;;;;;;29.57;38.20;94979.91;5055334;28;20523;-83
2021/08/16 04:42:49;;;;;;;9.87;7.70;;;;;;;29.89;37.99;94974.72;5073152;28;20520;-85
2021/08/16 04:45:16;;;;;;;8.27;7.47;;;;;;;30.17;40.08;94976.50;5038192;28;20849;-84
2021/08/16 04:54:27;;;;;;;9.07;8.17;;;;;;;30.99;36.53;94981.03;5071074;28;20849;-85
2021/08/16 04:56:54;;;;;;;10.93;8.70;;;;;;;31.19;35.31;94982.34;5073344;28;20444;-83
2021/08/16 04:59:21;;;;;;;8.73;7.00;;;;;;;31.41;35.46;94985.81;5073227;28;20548;-85
2021/08/16 05:01:50;;;;;;;14.57;8.17;;;;;;;31.45;35.47;94986.94;5073571;28;20528;-82
2021/08/16 05:17:50;;;;;;;7.47;6.83;;;;;;;31.69;33.85;94996.38;5073455;28;20774;-84
2021/08/16 05:20:18;;;;;;;7.93;6.10;;;;;;;31.77;33.29;94999.69;5073531;28;20562;-84
2021/08/16 05:22:47;;;;;;;7.87;6.70;;;;;;;31.96;34.47;95001.75;5073795;28;20516;-84
2021/08/16 05:25:16;;;;;;;9.00;6.00;;;;;;;31.93;32.82;95002.28;5073052;28;20437;-84
2021/08/16 05:27:43;;;;;;;12.90;7.70;;;;;;;31.72;33.41;95006.72;5073990;28;20464;-86
2021/08/16 05:30:11;;;;;;;8.83;7.23;;;;;;;31.45;33.34;94997.78;5073311;28;20619;-86
2021/08/16 05:32:38;;;;;;;7.47;6.77;;;;;;;31.17;34.07;94995.34;5073307;28;20440;-87
2021/08/16 05:35:08;;;;;;;9.07;6.80;;;;;;;30.92;34.85;95001.28;5054688;28;21097;-84
2021/08/16 05:37:35;;;;;;;7.73;7.10;;;;;;;30.87;34.74;95003.94;5054522;28;20470;-83
2021/08/16 05:40:02;;;;;;;16.23;6.37;;;;;;;30.68;35.45;94995.31;5037612;28;20440;-84
2021/08/16 05:42:29;;;;;;;11.43;7.37;;;;;;;29.88;37.00;94991.19;5073129;28;20891;-84
2021/08/16 05:44:56;;;;;;;12.77;8.30;;;;;;;29.40;37.26;94994.44;5073056;28;20539;-84
2021/08/16 05:47:23;;;;;;;10.13;8.00;;;;;;;29.57;37.64;94993.41;5073352;28;20535;-83
2021/08/16 05:49:50;;;;;;;18.33;6.77;;;;;;;29.80;37.76;94997.03;5073148;28;20556;-84
2021/08/16 05:52:18;;;;;;;13.77;7.07;;;;;;;29.78;36.98;94991.88;5072931;28;20527;-84
2021/08/16 05:54:46;;;;;;;7.57;6.77;;;;;;;29.65;37.65;94994.06;5038158;28;20443;-84
2021/08/16 05:57:12;;;;;;;18.30;8.53;;;;;;;29.14;37.83;94985.06;5072847;28;20524;-84
2021/08/16 05:59:39;;;;;;;10.43;7.30;;;;;;;28.92;38.97;94993.88;5073145;28;20433;-83
2021/08/16 06:02:07;;;;;;;11.00;7.03;;;;;;;28.79;39.38;94987.88;5072786;28;20916;-83
2021/08/16 06:04:34;;;;;;;10.53;7.07;;;;;;;28.68;39.26;94986.88;5073037;28;21012;-84
2021/08/16 06:07:01;;;;;;;9.23;6.87;;;;;;;28.71;39.49;94994.50;5058357;28;20443;-84
2021/08/16 06:09:30;;;;;;;17.20;7.20;;;;;;;29.02;39.09;94997.81;5076692;28;20468;-84
2021/08/16 06:11:57;;;;;;;8.87;6.13;;;;;;;29.27;38.61;94990.16;5076910;28;20437;-83
2021/08/16 06:14:24;;;;;;;12.53;7.40;;;;;;;29.53;38.16;94981.47;5076925;28;20551;-83
2021/08/16 06:16:50;;;;;;;9.27;7.13;;;;;;;29.60;37.38;94986.69;5076777;28;20862;-84
2021/08/16 06:19:19;;;;;;;9.63;6.53;;;;;;;29.75;38.06;94994.22;5041533;28;21044;-84
2021/08/16 06:21:46;;;;;;;12.53;7.30;;;;;;;29.58;37.77;94986.94;5076608;28;20477;-84
2021/08/16 06:24:15;;;;;;;12.07;7.37;;;;;;;29.44;37.99;94993.72;5076382;28;20904;-84
2021/08/16 06:26:43;;;;;;;13.63;6.77;;;;;;;29.50;38.00;94994.66;5076525;28;20483;-84
2021/08/16 06:29:10;;;;;;;10.40;7.43;;;;;;;29.68;38.24;94996.28;5076324;28;20507;-83
2021/08/16 06:31:37;;;;;;;9.10;6.27;;;;;;;29.91;38.38;94988.81;5076312;28;20520;-83
2021/08/16 06:34:07;;;;;;;12.30;6.27;;;;;;;30.02;37.24;95000.59;5076175;28;20568;-83
2021/08/16 06:50:06;;;;;;;11.47;6.50;;;;;;;29.90;37.32;94999.88;5076308;28;20452;-83
2021/08/16 06:52:33;;;;;;;8.40;6.47;;;;;;;30.11;36.52;95001.84;5076062;28;20909;-83
2021/08/16 06:55:00;;;;;;;14.47;6.50;;;;;;;30.30;36.42;94999.66;5075826;28;20905;-84
2021/08/16 06:57:27;;;;;;;13.20;6.80;;;;;;;30.41;35.79;94998.75;5075853;28;20528;-83
2021/08/16 06:59:54;;;;;;;15.90;6.90;;;;;;;30.64;35.12;94997.69;5076656;28;20501;-84
2021/08/16 07:02:21;;;;;;;12.50;6.47;;;;;;;30.88;35.32;94997.44;5040864;28;20451;-84
2021/08/16 07:04:49;;;;;;;8.33;7.13;;;;;;;31.08;34.66;95000.38;5075786;28;20890;-83
2021/08/16 07:07:17;;;;;;;6.73;6.03;;;;;;;30.99;34.05;94996.50;5076026;28;20504;-84
2021/08/16 07:09:45;;;;;;;7.00;6.40;;;;;;;30.78;33.16;94996.25;5040792;28;20477;-83
2021/08/16 07:12:12;;;;;;;8.50;6.90;;;;;;;30.97;34.23;95004.06;5075576;28;20800;-84
2021/08/16 07:14:39;;;;;;;8.30;7.20;;;;;;;31.11;34.88;95006.09;5075875;28;20540;-84
2021/08/16 07:17:06;;;;;;;13.83;6.10;;;;;;;31.12;33.59;94994.19;5055992;28;20520;-84
2021/08/16 07:19:33;;;;;;;7.60;6.83;;;;;;;30.78;34.50;95006.28;5074292;28;20484;-83
2021/08/16 07:22:00;;;;;;;9.80;6.10;;;;;;;31.04;34.79;95002.78;5075126;28;20508;-83
2021/08/16 07:27:52;;;;;;;7.70;6.00;;;;;;;30.49;35.20;95006.44;5054320;28;20482;-83
2021/08/16 07:30:19;;;;;;;10.73;6.50;;;;;;;30.31;35.42;95000.47;5055132;28;20478;-83
2021/08/16 07:32:46;;;;;;;9.90;7.00;;;;;;;30.63;35.75;94997.94;5056309;28;20538;-84
2021/08/16 07:35:13;;;;;;;8.73;6.53;;;;;;;30.88;35.46;95003.66;5074886;28;20532;-83
2021/08/16 07:41:01;;;;;;;7.63;6.37;;;;;;;30.77;35.25;94999.22;5076526;28;20439;-83
2021/08/16 07:43:30;;;;;;;7.53;6.30;;;;;;;30.93;34.43;94997.47;5074241;28;20440;-83
2021/08/16 07:45:57;;;;;;;9.10;6.20;;;;;;;31.03;33.31;94987.59;5048892;28;20441;-83
2021/08/16 07:48:23;;;;;;;8.60;7.60;;;;;;;30.98;33.58;94986.72;5073720;28;21656;-84
2021/08/16 07:50:50;;;;;;;9.43;6.90;;;;;;;31.25;33.10;94984.06;5074550;28;20563;-83
2021/08/16 08:06:52;;;;;;;9.23;7.47;;;;;;;32.07;31.67;94983.63;5072049;28;20777;-82
2021/08/16 08:09:20;;;;;;;8.13;7.30;;;;;;;32.00;31.54;94983.88;5074129;28;20529;-84
2021/08/16 08:11:47;;;;;;;10.30;8.50;;;;;;;32.02;32.50;94980.88;5074263;28;20517;-83
2021/08/16 08:14:14;;;;;;;16.13;8.80;;;;;;;32.28;32.42;94980.00;5074708;28;20983;-83
2021/08/16 08:16:41;;;;;;;9.23;8.33;;;;;;;32.59;32.76;94978.25;5074295;28;20905;-83
2021/08/16 08:19:08;;;;;;;14.93;7.87;;;;;;;32.81;31.73;94974.56;5073867;28;20560;-83
2021/08/16 08:21:35;;;;;;;13.43;8.33;;;;;;;32.92;32.67;94977.03;5074706;28;20530;-84
2021/08/16 08:24:04;;;;;;;9.03;8.13;;;;;;;33.13;32.37;94980.63;5075001;28;20455;-84
2021/08/16 08:26:31;;;;;;;9.67;7.33;;;;;;;33.14;31.62;94976.00;5073714;28;20822;-83
2021/08/16 08:42:26;;;;;;;12.50;7.80;;;;;;;33.20;30.73;94956.69;5074135;28;20387;-80
2021/08/16 08:44:53;;;;;;;23.33;8.70;;;;;;;33.29;29.30;94956.19;5072916;28;20443;-81
2021/08/16 08:47:20;;;;;;;14.50;8.30;;;;;;;33.02;30.13;94948.25;5073501;28;20528;-81
2021/08/16 08:49:47;;;;;;;10.47;7.60;;;;;;;32.98;30.41;94945.25;5073887;28;20527;-84
2021/08/16 08:52:14;;;;;;;10.27;7.60;;;;;;;33.07;30.40;94954.50;5071163;28;20547;-79
2021/08/16 08:54:41;;;;;;;11.60;7.30;;;;;;;33.12;30.48;94949.06;5072827;28;20863;-78
2021/08/16 08:57:16;;;;;;;9.03;6.80;;;;;;;33.15;31.35;94947.72;5071677;28;20449;-84
2021/08/16 08:59:45;;;;;;;10.20;8.03;;;;;;;33.02;29.77;94940.09;5072908;28;20449;-83
2021/08/16 09:02:13;;;;;;;8.87;8.00;;;;;;;33.05;31.22;94937.63;5072847;28;20448;-83
2021/08/16 09:04:50;;;;;;;9.47;7.77;;;;;;;33.11;31.36;94936.56;5073352;28;20506;-83
2021/08/16 09:07:17;;;;;;;8.07;7.27;;;;;;;33.07;31.01;94935.47;5037979;28;20936;-84
2021/08/16 09:09:53;;;;;;;9.50;7.50;;;;;;;33.15;32.46;94943.09;5072493;28;20472;-83
2021/08/16 09:12:28;;;;;;;8.83;7.23;;;;;;;33.25;30.15;94934.97;5072912;28;20519;-82
2021/08/16 09:14:57;;;;;;;8.30;7.50;;;;;;;33.04;30.37;94927.84;5053886;28;20540;-82
2021/08/16 09:17:29;;;;;;;9.93;7.53;;;;;;;32.92;30.21;94927.25;5054397;28;20444;-82
2021/08/16 09:19:56;;;;;;;7.53;6.80;;;;;;;33.05;30.51;94921.31;5054671;28;20552;-83
2021/08/16 09:22:26;;;;;;;16.10;8.33;;;;;;;33.24;30.31;94919.69;5054105;28;20440;-83
2021/08/16 09:25:01;;;;;;;14.40;7.87;;;;;;;33.37;30.16;94912.94;5035521;28;20499;-82
2021/08/16 09:27:28;;;;;;;14.00;8.40;;;;;;;33.27;30.31;94910.19;5053494;28;20448;-85
2021/08/16 09:29:55;;;;;;;16.63;8.27;;;;;;;33.12;29.83;94916.44;5063536;28;20421;-86
2021/08/16 09:32:34;;;;;;;7.97;6.77;;;;;;;33.07;31.46;94919.16;5072455;28;20461;-87
2021/08/16 09:35:09;;;;;;;7.43;6.77;;;;;;;33.07;30.98;94911.00;5071652;28;20524;-87
2021/08/16 09:37:36;;;;;;;12.77;7.40;;;;;;;32.66;30.20;94907.31;5072657;28;20450;-86
2021/08/16 09:40:06;;;;;;;7.90;7.10;;;;;;;32.54;30.59;94899.41;5072158;28;20453;-86
2021/08/16 09:42:45;;;;;;;6.93;6.33;;;;;;;32.59;31.43;94896.72;5072033;28;20448;-86
2021/08/16 09:45:13;;;;;;;8.13;7.40;;;;;;;32.84;31.72;94895.19;5072136;28;20453;-87
2021/08/16 09:47:43;;;;;;;9.30;7.37;;;;;;;32.95;31.29;94894.91;5072598;28;20519;-86
2021/08/16 09:50:12;;;;;;;7.90;7.13;;;;;;;33.10;30.61;94888.69;5072665;28;20433;-87
2021/08/16 09:52:40;;;;;;;9.60;6.70;;;;;;;33.22;30.32;94881.06;5063044;28;20443;-86
2021/08/16 09:58:31;;;;;;;7.90;6.60;;;;;;;33.35;29.88;94877.03;5067362;28;20485;-87
2021/08/16 10:00:58;;;;;;;6.90;6.20;;;;;;;33.44;30.58;94880.00;5072852;28;20878;-86
2021/08/16 10:03:28;;;;;;;7.33;6.50;;;;;;;33.29;30.78;94874.56;5073076;28;20433;-86
2021/08/16 10:05:56;;;;;;;7.27;6.67;;;;;;;33.13;30.55;94873.72;5072012;28;20955;-84
2021/08/16 10:08:25;;;;;;;14.97;10.60;;;;;;;33.21;30.72;94863.13;5071768;28;20448;-82
2021/08/16 10:10:54;;;;;;;8.80;7.90;;;;;;;33.29;30.95;94858.25;5072256;28;20564;-83
2021/08/16 10:13:22;;;;;;;6.80;6.10;;;;;;;33.35;29.99;94854.47;5073608;28;20444;-86
2021/08/16 10:15:54;;;;;;;8.43;6.43;;;;;;;33.41;31.10;94853.34;5038016;28;20484;-85
2021/08/16 10:18:25;;;;;;;6.90;6.13;;;;;;;33.45;30.59;94847.09;5072721;28;20433;-84
2021/08/16 10:20:56;;;;;;;7.70;6.40;;;;;;;33.32;29.50;94847.66;5073031;28;20477;-84
2021/08/16 10:23:27;;;;;;;9.73;6.50;;;;;;;33.09;30.12;94840.81;5073034;28;20531;-85
2021/08/16 10:25:56;;;;;;;7.00;6.00;;;;;;;33.13;30.14;94833.75;5073035;28;20503;-83
2021/08/16 10:28:26;;;;;;;10.73;6.43;;;;;;;33.13;29.76;94836.47;5072642;28;20441;-84
2021/08/16 10:30:53;;;;;;;6.47;5.80;;;;;;;33.12;30.90;94834.03;5072849;28;20551;-82
2021/08/16 10:33:20;;;;;;;6.00;5.50;;;;;;;33.10;31.29;94830.75;5072953;28;20527;-81
2021/08/16 10:35:47;;;;;;;8.00;6.20;;;;;;;33.12;29.55;94834.84;5072590;28;20799;-81
2021/08/16 10:38:18;;;;;;;6.30;5.80;;;;;;;32.97;29.14;94832.13;5073212;28;20467;-80
2021/08/16 10:40:46;;;;;;;7.03;6.33;;;;;;;32.96;29.41;94825.03;5072700;28;20531;-81
2021/08/16 10:43:14;;;;;;;6.87;6.27;;;;;;;32.99;29.48;94819.09;5072208;28;20531;-81
2021/08/16 10:45:46;;;;;;;5.77;5.27;;;;;;;33.04;29.73;94816.34;5072500;28;20534;-81
2021/08/16 10:48:22;;;;;;;5.93;5.37;;;;;;;32.87;29.05;94808.47;5072323;28;20444;-81
2021/08/16 10:50:49;;;;;;;5.90;5.30;;;;;;;32.94;29.96;94805.47;5072949;28;20485;-81
2021/08/16 10:53:17;;;;;;;6.60;6.10;;;;;;;32.95;29.88;94809.81;5076264;28;20448;-81
2021/08/16 10:55:44;;;;;;;6.00;5.40;;;;;;;32.98;29.54;94805.75;5075985;28;20470;-81
2021/08/16 10:58:13;;;;;;;7.83;6.27;;;;;;;32.98;29.91;94798.41;5076117;28;20459;-81
2021/08/16 11:00:41;;;;;;;8.60;5.10;;;;;;;32.91;29.26;94797.84;5075396;28;20523;-81
2021/08/16 11:03:09;;;;;;;7.50;4.47;;;;;;;32.97;29.71;94794.06;5075702;28;20947;-81
2021/08/16 11:05:37;;;;;;;5.30;4.80;;;;;;;32.95;28.59;94790.78;5075723;28;20936;-81
2021/08/16 11:08:07;;;;;;;8.90;4.80;;;;;;;33.03;27.83;94784.81;5075763;28;20448;-80
2021/08/16 11:10:40;;;;;;;5.33;4.93;;;;;;;33.16;29.11;94791.59;5075384;28;20951;-81
2021/08/16 11:13:12;;;;;;;5.63;4.47;;;;;;;33.22;27.02;94777.69;5076865;28;20451;-81
2021/08/16 11:15:39;;;;;;;4.60;4.20;;;;;;;33.05;27.34;94779.91;5075769;28;20447;-81
2021/08/16 11:18:14;;;;;;;5.00;4.60;;;;;;;32.93;26.59;94782.91;5075533;28;20445;-80
2021/08/16 11:20:41;;;;;;;4.97;4.60;;;;;;;32.80;26.23;94779.91;5075916;28;20863;-81
2021/08/16 11:23:08;;;;;;;5.17;4.67;;;;;;;32.90;26.83;94769.03;5075544;28;20453;-81
2021/08/16 11:25:35;;;;;;;4.80;4.50;;;;;;;32.96;27.05;94767.94;5075142;28;20455;-81
2021/08/16 11:28:07;;;;;;;3.73;3.50;;;;;;;33.06;25.45;94770.66;5075190;28;20532;-81
2021/08/16 11:30:34;;;;;;;6.23;4.13;;;;;;;33.12;24.93;94763.31;5075109;28;20795;-81
2021/08/16 11:33:01;;;;;;;5.60;4.33;;;;;;;33.19;24.14;94755.69;5075299;28;20447;-81
2021/08/16 11:35:28;;;;;;;5.43;4.60;;;;;;;33.12;23.75;94752.44;5056383;28;20508;-81
2021/08/16 11:37:55;;;;;;;4.30;3.90;;;;;;;33.14;24.72;94751.06;5075091;28;21165;-80
2021/08/16 11:40:22;;;;;;;3.70;3.40;;;;;;;33.25;24.99;94747.25;5074936;28;20528;-80
2021/08/16 11:42:50;;;;;;;5.20;4.53;;;;;;;33.35;24.26;94743.72;5075145;28;20536;-81
2021/08/16 11:45:20;;;;;;;9.80;4.17;;;;;;;33.43;24.37;94734.16;5039749;28;20445;-81
2021/08/16 11:47:50;;;;;;;4.40;3.97;;;;;;;33.49;23.63;94741.22;5074884;28;20536;-81
2021/08/16 11:50:18;;;;;;;5.87;3.77;;;;;;;33.61;24.25;94741.75;5039668;28;20775;-81
2021/08/16 11:52:49;;;;;;;4.30;3.90;;;;;;;33.66;23.03;94730.03;5074793;28;20491;-80
2021/08/16 11:55:16;;;;;;;5.80;4.10;;;;;;;33.67;23.14;94727.03;5074430;28;20937;-80
2021/08/16 11:57:51;;;;;;;5.40;3.60;;;;;;;33.63;23.27;94731.41;5074810;28;20447;-81
2021/08/16 12:00:24;;;;;;;4.13;3.73;;;;;;;33.40;22.24;94726.56;5074411;28;20520;-78
2021/08/16 12:02:55;;;;;;;4.33;3.90;;;;;;;33.44;22.88;94725.72;5074169;28;20487;-78
2021/08/16 12:05:22;;;;;;;3.90;3.67;;;;;;;33.34;22.69;94714.88;5074314;28;20440;-78
2021/08/16 12:07:49;;;;;;;4.87;3.40;;;;;;;33.44;22.13;94708.59;5074740;28;20523;-83
2021/08/16 12:10:17;;;;;;;6.80;3.73;;;;;;;33.47;22.55;94708.84;5074368;28;20548;-79
2021/08/16 12:12:44;;;;;;;5.77;2.97;;;;;;;33.54;22.42;94706.66;5074312;28;21010;-79
2021/08/16 12:15:15;;;;;;;4.33;3.77;;;;;;;33.58;22.97;94712.38;5074855;28;20467;-80
2021/08/16 12:17:44;;;;;;;3.70;3.40;;;;;;;33.53;23.14;94706.91;5074181;28;20453;-79
2021/08/16 12:20:13;;;;;;;4.03;3.73;;;;;;;33.46;23.66;94706.41;5074695;28;20472;-78
2021/08/16 12:22:50;;;;;;;4.27;3.57;;;;;;;33.44;23.04;94706.69;5073963;28;20461;-79
2021/08/16 12:25:17;;;;;;;3.97;3.70;;;;;;;33.34;22.43;94692.31;5074245;28;20445;-80
2021/08/16 12:27:54;;;;;;;3.93;3.63;;;;;;;33.40;23.48;94694.72;5074340;28;20445;-82
2021/08/16 12:30:21;;;;;;;4.93;3.67;;;;;;;33.49;21.95;94697.69;5073417;28;20443;-81
2021/08/16 12:32:49;;;;;;;3.87;3.57;;;;;;;33.53;22.57;94688.69;5074381;28;20572;-81
2021/08/16 12:35:17;;;;;;;3.60;3.33;;;;;;;33.63;23.60;94685.13;5074035;28;20443;-81
2021/08/16 12:37:45;;;;;;;4.43;4.03;;;;;;;33.65;22.70;94684.84;5039184;28;20815;-81
2021/08/16 12:40:17;;;;;;;3.73;3.47;;;;;;;33.66;22.69;94676.41;5074340;28;20445;-81
2021/08/16 12:42:55;;;;;;;5.80;3.50;;;;;;;33.66;22.54;94673.69;5073807;28;20457;-81
2021/08/16 12:45:22;;;;;;;3.93;3.60;;;;;;;33.67;22.56;94671.75;5073904;28;20452;-81
2021/08/16 12:48:00;;;;;;;5.93;3.70;;;;;;;33.63;23.50;94673.41;5074050;28;20445;-80
2021/08/16 12:50:27;;;;;;;4.30;3.30;;;;;;;33.45;21.85;94667.50;5074045;28;20440;-81
2021/08/16 12:52:54;;;;;;;3.80;3.50;;;;;;;33.43;21.77;94660.72;5073373;28;20488;-80
2021/08/16 12:55:21;;;;;;;4.50;4.00;;;;;;;33.43;22.05;94666.16;5073921;28;20512;-80
2021/08/16 12:57:49;;;;;;;7.10;3.60;;;;;;;33.52;21.47;94659.03;5073903;28;20871;-81
2021/08/16 13:00:16;;;;;;;3.50;3.20;;;;;;;33.61;21.95;94651.94;5073448;28;20455;-80
2021/08/16 13:02:44;;;;;;;5.90;3.03;;;;;;;33.71;22.47;94651.88;5054823;28;20441;-81
2021/08/16 13:05:13;;;;;;;3.93;3.53;;;;;;;33.80;22.72;94654.81;5073822;28;20467;-81
2021/08/16 13:07:40;;;;;;;4.00;3.70;;;;;;;33.81;22.49;94646.34;5038585;28;20457;-81
2021/08/16 13:10:08;;;;;;;3.70;3.40;;;;;;;33.82;21.91;94647.97;5073783;28;20455;-81
2021/08/16 13:12:36;;;;;;;5.00;4.60;;;;;;;33.70;20.36;94643.97;5073667;28;20488;-81
2021/08/16 13:15:04;;;;;;;3.47;3.17;;;;;;;33.75;21.71;94641.22;5073136;28;20459;-81
2021/08/16 13:17:31;;;;;;;3.33;3.00;;;;;;;33.66;20.92;94638.28;5073380;28;20905;-81
2021/08/16 13:19:58;;;;;;;3.80;3.50;;;;;;;33.72;20.78;94636.34;5073675;28;20831;-80
2021/08/16 13:22:26;;;;;;;3.23;2.80;;;;;;;33.76;21.46;94640.13;5054835;28;20444;-81
2021/08/16 13:24:53;;;;;;;3.50;3.20;;;;;;;33.77;20.68;94639.84;5038181;28;20940;-81
2021/08/16 13:27:20;;;;;;;3.77;3.00;;;;;;;33.83;20.62;94644.22;5073303;28;20445;-81
2021/08/16 13:29:47;;;;;;;3.67;3.37;;;;;;;33.68;20.33;94636.09;5073552;28;20448;-81